Mount Carmel, Louisiana
Current Conditions -  °F | °C
As of 12:56 AM on Friday 19 Dec 2014 (Local Time) from KAQV Reporting Station
Haze Haze  
Wind Chill: 51°   Ceiling: 200
Heat Index: 51°   Visibility: 1.5mi
Dew Point: 50°   Wind: 5mph
Humidity: 96%   Direction: 10°N
Pressure: 30.09"   Gusts: NA
Location:  31.4159°N, 93.4621°W
Report Text: KAQV 190656Z AUTO 01004KT 1 1/2SM BR OVC002 11/10 A3009 RMK AO2 SLP189 T01060100
Loading
Personal Weather Stations






























Interactive Weather Map New forecast layout! Learn more

10-Day Weather Forecast

Advertisements
Track Severe Weather on mobile